createdAt,value
2023-04-21T00:00:49.210Z,5.03
2023-04-21T00:03:17.865Z,4.95
2023-04-21T00:05:46.140Z,4.70
2023-04-21T00:08:14.108Z,4.93
2023-04-21T00:10:41.995Z,5.90
2023-04-21T00:13:10.317Z,5.00
2023-04-21T00:15:39.715Z,5.65
2023-04-21T00:18:07.820Z,4.95
2023-04-21T00:20:35.777Z,5.38
2023-04-21T00:23:04.103Z,5.10
2023-04-21T00:25:32.002Z,4.68
2023-04-21T00:27:59.910Z,5.03
2023-04-21T00:30:27.752Z,5.28
2023-04-21T00:32:57.054Z,4.97
2023-04-21T00:35:24.966Z,5.32
2023-04-21T00:37:52.947Z,6.28
2023-04-21T00:40:20.960Z,5.82
2023-04-21T00:42:48.877Z,5.10
2023-04-21T00:45:16.753Z,5.22
2023-04-21T00:47:44.791Z,5.15
2023-04-21T00:50:14.367Z,5.93
2023-04-21T00:52:44.456Z,5.80
2023-04-21T00:55:12.906Z,5.68
2023-04-21T00:57:40.948Z,5.95
2023-04-21T01:00:10.622Z,6.45
2023-04-21T01:02:40.300Z,5.95
2023-04-21T01:05:09.954Z,5.75
2023-04-21T01:07:41.154Z,6.95
2023-04-21T01:10:10.090Z,6.30
2023-04-21T01:12:44.201Z,6.05
2023-04-21T01:15:12.681Z,5.60
2023-04-21T01:17:40.548Z,6.45
2023-04-21T01:20:10.897Z,6.53
2023-04-21T01:22:41.679Z,6.53
2023-04-21T01:25:10.376Z,7.45
2023-04-21T01:27:38.624Z,6.80
2023-04-21T01:30:08.657Z,6.15
2023-04-21T01:32:37.111Z,6.32
2023-04-21T01:35:06.542Z,7.15
2023-04-21T01:37:35.115Z,6.90
2023-04-21T01:40:07.344Z,6.93
2023-04-21T01:42:36.625Z,7.25
2023-04-21T01:45:05.278Z,7.03
2023-04-21T01:47:33.247Z,7.05
2023-04-21T01:50:01.060Z,7.72
2023-04-21T01:52:28.966Z,6.95
2023-04-21T01:54:56.866Z,6.90
2023-04-21T01:57:26.119Z,6.85
2023-04-21T01:59:54.358Z,6.90
2023-04-21T02:02:22.408Z,7.88
2023-04-21T02:04:52.216Z,6.55
2023-04-21T02:07:20.168Z,7.68
2023-04-21T02:09:48.112Z,7.20
2023-04-21T02:12:16.148Z,7.68
2023-04-21T02:14:47.272Z,7.18
2023-04-21T02:17:15.445Z,6.85
2023-04-21T02:19:43.262Z,7.28
2023-04-21T02:22:12.928Z,6.78
2023-04-21T02:24:40.812Z,7.20
2023-04-21T02:27:08.676Z,7.53
2023-04-21T02:29:36.672Z,6.45
2023-04-21T02:34:39.082Z,6.65
2023-04-21T02:37:06.962Z,7.68
2023-04-21T02:39:34.786Z,8.00
2023-04-21T02:42:03.069Z,6.72
2023-04-21T02:44:31.127Z,7.35
2023-04-21T02:46:59.111Z,7.75
2023-04-21T02:49:28.312Z,7.13
2023-04-21T02:51:59.344Z,7.22
2023-04-21T02:54:27.249Z,8.00
2023-04-21T02:56:55.099Z,7.30
2023-04-21T02:59:23.057Z,7.38
2023-04-21T03:01:51.054Z,6.80
2023-04-21T03:04:19.760Z,8.15
2023-04-21T03:06:49.121Z,7.47
2023-04-21T03:09:17.013Z,7.45
2023-04-21T03:11:44.917Z,7.25
2023-04-21T03:14:13.182Z,7.28
2023-04-21T03:16:41.250Z,7.63
2023-04-21T03:19:09.189Z,7.97
2023-04-21T03:21:39.161Z,8.02
2023-04-21T03:24:08.771Z,7.75
2023-04-21T03:26:36.704Z,7.93
2023-04-21T03:29:04.569Z,8.05
2023-04-21T03:31:32.593Z,7.10
2023-04-21T03:34:00.495Z,8.60
2023-04-21T03:36:29.568Z,7.68
2023-04-21T03:39:05.958Z,7.45
2023-04-21T03:41:42.384Z,7.40
2023-04-21T03:44:10.779Z,7.72
2023-04-21T03:46:40.800Z,7.90
2023-04-21T03:49:08.669Z,8.30
2023-04-21T03:51:36.518Z,7.97
2023-04-21T03:54:04.584Z,7.53
2023-04-21T03:56:32.517Z,8.05
2023-04-21T03:59:01.694Z,7.45
2023-04-21T04:01:30.424Z,7.47
2023-04-21T04:03:58.329Z,8.43
2023-04-21T04:06:26.563Z,8.32
2023-04-21T04:08:54.380Z,7.75
2023-04-21T04:11:22.330Z,7.82
2023-04-21T04:13:50.193Z,7.85
2023-04-21T04:16:19.563Z,8.73
2023-04-21T04:18:47.446Z,7.70
2023-04-21T04:21:15.241Z,8.57
2023-04-21T04:23:44.368Z,8.18
2023-04-21T04:26:12.295Z,8.07
2023-04-21T04:28:40.354Z,7.72
2023-04-21T04:31:08.319Z,8.20
2023-04-21T04:33:37.586Z,8.43
2023-04-21T04:36:05.567Z,8.55
2023-04-21T04:38:35.501Z,8.00
2023-04-21T04:41:03.294Z,7.97
2023-04-21T04:43:33.482Z,7.80
2023-04-21T04:46:01.480Z,8.05
2023-04-21T04:48:29.321Z,8.05
2023-04-21T04:50:58.607Z,7.80
2023-04-21T04:53:26.503Z,8.63
2023-04-21T04:55:54.612Z,8.13
2023-04-21T04:58:22.671Z,8.68
2023-04-21T05:00:50.716Z,8.30
2023-04-21T05:03:19.004Z,8.27
2023-04-21T05:05:47.147Z,8.43
2023-04-21T05:08:18.013Z,8.18
2023-04-21T05:10:46.186Z,8.80
2023-04-21T05:13:14.021Z,8.25
2023-04-21T05:15:41.815Z,8.65
2023-04-21T05:18:09.694Z,8.00
2023-04-21T05:20:37.563Z,8.70
2023-04-21T05:23:05.462Z,8.68
2023-04-21T05:25:34.666Z,8.63
2023-04-21T05:28:02.478Z,8.50
2023-04-21T05:30:30.298Z,9.88
2023-04-21T05:32:58.237Z,8.63
2023-04-21T05:35:26.238Z,9.75
2023-04-21T05:37:54.085Z,7.97
2023-04-21T05:40:22.009Z,9.70
2023-04-21T05:42:51.220Z,8.85
2023-04-21T05:45:19.528Z,9.10
2023-04-21T05:47:47.486Z,8.75
2023-04-21T05:50:16.421Z,9.15
2023-04-21T05:52:44.243Z,8.43
2023-04-21T05:55:12.098Z,8.43
2023-04-21T05:57:39.960Z,8.55
2023-04-21T06:00:11.012Z,8.15
2023-04-21T06:02:39.089Z,8.65
2023-04-21T06:05:07.537Z,8.88
2023-04-21T06:07:37.970Z,10.70
2023-04-21T06:10:06.384Z,9.05
2023-04-21T06:12:34.279Z,8.68
2023-04-21T06:15:02.165Z,8.07
2023-04-21T06:17:31.482Z,8.57
2023-04-21T06:19:59.504Z,8.60
2023-04-21T06:22:28.462Z,8.57
2023-04-21T06:24:56.672Z,8.43
2023-04-21T06:27:25.388Z,8.48
2023-04-21T06:29:55.617Z,8.48
2023-04-21T06:32:23.538Z,8.63
2023-04-21T06:34:52.900Z,8.52
2023-04-21T06:37:20.699Z,8.75
2023-04-21T06:39:48.526Z,8.35
2023-04-21T06:42:16.402Z,7.80
2023-04-21T06:44:44.347Z,8.07
2023-04-21T06:47:12.231Z,7.80
2023-04-21T06:49:40.201Z,7.85
2023-04-21T06:52:09.464Z,8.85
2023-04-21T06:54:38.360Z,9.00
2023-04-21T06:57:06.662Z,8.45
2023-04-21T06:59:35.097Z,9.25
2023-04-21T07:02:03.031Z,8.10
2023-04-21T07:04:32.328Z,8.60
2023-04-21T07:07:03.012Z,8.75
2023-04-21T07:09:33.910Z,9.05
2023-04-21T07:12:02.696Z,8.45
2023-04-21T07:14:30.888Z,8.02
2023-04-21T07:16:59.366Z,8.05
2023-04-21T07:19:27.565Z,8.55
2023-04-21T07:21:55.639Z,8.90
2023-04-21T07:24:23.513Z,8.45
2023-04-21T07:26:52.765Z,8.90
2023-04-21T07:29:20.961Z,8.88
2023-04-21T07:31:48.951Z,8.73
2023-04-21T07:34:17.122Z,8.40
2023-04-21T07:36:44.961Z,8.57
2023-04-21T07:39:12.977Z,8.75
2023-04-21T07:41:40.881Z,8.45
2023-04-21T07:44:10.129Z,8.00
2023-04-21T07:46:38.242Z,8.57
2023-04-21T07:49:06.344Z,9.38
2023-04-21T07:51:34.358Z,8.93
2023-04-21T07:54:02.327Z,8.68
2023-04-21T07:56:30.558Z,9.05
2023-04-21T07:58:58.528Z,8.48
2023-04-21T08:01:27.770Z,8.32
2023-04-21T08:03:55.701Z,7.63
2023-04-21T08:06:23.990Z,9.00
2023-04-21T08:08:51.888Z,8.88
2023-04-21T08:11:19.810Z,8.93
2023-04-21T08:13:47.805Z,8.43
2023-04-21T08:16:15.886Z,8.45
2023-04-21T08:18:45.436Z,8.55
2023-04-21T08:21:14.072Z,8.60
2023-04-21T08:23:42.087Z,8.80
2023-04-21T08:26:10.882Z,8.10
2023-04-21T08:28:38.810Z,9.02
2023-04-21T08:31:06.949Z,8.05
2023-04-21T08:33:35.516Z,8.63
2023-04-21T08:36:15.217Z,7.78
2023-04-21T08:38:50.276Z,7.38
2023-04-21T08:41:18.176Z,8.20
2023-04-21T08:43:46.081Z,7.60
2023-04-21T08:46:14.447Z,7.03
2023-04-21T08:48:42.490Z,8.35
2023-04-21T08:51:11.954Z,7.55
2023-04-21T08:53:42.395Z,8.18
2023-04-21T08:56:11.843Z,7.03
2023-04-21T08:58:41.357Z,7.63
2023-04-21T09:01:09.308Z,7.93
2023-04-21T09:03:37.528Z,7.35
2023-04-21T09:06:07.816Z,7.35
2023-04-21T09:08:39.929Z,7.30
2023-04-21T09:11:07.885Z,7.28
2023-04-21T09:13:36.969Z,6.90
2023-04-21T09:16:08.566Z,7.80
2023-04-21T09:18:40.301Z,7.00
2023-04-21T09:21:10.711Z,6.95
2023-04-21T09:23:48.169Z,7.28
2023-04-21T09:26:17.042Z,7.18
2023-04-21T09:28:45.731Z,7.20
2023-04-21T09:31:19.798Z,7.32
2023-04-21T09:33:57.788Z,7.80
2023-04-21T09:36:29.033Z,6.68
2023-04-21T09:39:25.106Z,6.38
2023-04-21T09:41:47.198Z,7.03
2023-04-21T09:44:15.080Z,7.00
2023-04-21T09:46:45.225Z,7.60
2023-04-21T09:49:15.097Z,6.70
2023-04-21T09:52:14.252Z,6.93
2023-04-21T09:54:35.251Z,7.05
2023-04-21T09:57:05.264Z,6.30
2023-04-21T09:59:36.728Z,6.80
2023-04-21T10:02:07.810Z,6.72
2023-04-21T10:04:38.303Z,7.10
2023-04-21T10:07:07.928Z,7.53
2023-04-21T10:09:41.877Z,6.50
2023-04-21T10:12:10.870Z,7.00
2023-04-21T10:14:38.730Z,7.00
2023-04-21T10:17:09.208Z,7.28
2023-04-21T10:19:40.142Z,6.85
2023-04-21T10:22:09.796Z,8.25
2023-04-21T10:24:43.342Z,6.57
2023-04-21T10:27:12.630Z,6.13
2023-04-21T10:29:55.434Z,7.03
2023-04-21T10:32:33.674Z,6.93
2023-04-21T10:35:01.900Z,5.70
2023-04-21T10:37:32.732Z,6.00
2023-04-21T10:40:01.955Z,6.28
2023-04-21T10:42:34.843Z,5.75
2023-04-21T10:45:12.574Z,6.07
2023-04-21T10:47:46.485Z,5.88
2023-04-21T10:50:20.783Z,5.72
2023-04-21T10:52:54.493Z,6.05
2023-04-21T10:55:23.953Z,5.57
2023-04-21T10:57:51.854Z,5.80
2023-04-21T11:00:22.891Z,5.25
2023-04-21T11:02:58.681Z,6.18
2023-04-21T11:05:36.447Z,5.38
2023-04-21T11:08:12.913Z,5.63
2023-04-21T11:10:54.882Z,5.55
2023-04-21T11:13:24.221Z,5.50
2023-04-21T11:16:03.851Z,5.63
2023-04-21T11:18:38.272Z,5.90
2023-04-21T11:21:17.904Z,5.95
2023-04-21T11:23:56.333Z,6.03
2023-04-21T11:26:38.163Z,5.60
2023-04-21T11:29:08.259Z,5.70
2023-04-21T11:31:37.566Z,5.93
2023-04-21T11:34:07.367Z,5.57
2023-04-21T11:36:35.492Z,5.55
2023-04-21T11:39:08.168Z,5.75
2023-04-21T11:41:40.140Z,6.10
2023-04-21T11:44:08.192Z,6.20
2023-04-21T11:46:37.277Z,5.90
2023-04-21T11:49:06.660Z,5.93
2023-04-21T11:51:36.079Z,5.43
2023-04-21T11:54:06.755Z,5.28
2023-04-21T11:56:38.229Z,5.53
2023-04-21T11:59:09.558Z,6.13
2023-04-21T12:01:44.616Z,4.72
2023-04-21T12:04:18.158Z,6.72
2023-04-21T12:06:47.045Z,5.53
2023-04-21T12:09:19.552Z,5.30
2023-04-21T12:11:51.010Z,5.68
2023-04-21T12:14:19.662Z,5.57
2023-04-21T12:16:50.135Z,5.85
2023-04-21T12:19:23.776Z,5.18
2023-04-21T12:21:54.535Z,5.93
2023-04-21T12:24:22.375Z,5.70
2023-04-21T12:26:51.651Z,5.68
2023-04-21T12:29:19.623Z,5.35
2023-04-21T12:31:47.548Z,5.38
2023-04-21T12:34:16.149Z,5.60
2023-04-21T12:36:44.255Z,5.90
2023-04-21T12:39:13.490Z,5.32
2023-04-21T12:41:41.847Z,6.05
2023-04-21T12:44:11.050Z,5.53
2023-04-21T12:46:39.134Z,5.55
2023-04-21T12:49:07.619Z,6.28
2023-04-21T12:51:35.984Z,5.88
2023-04-21T12:54:03.817Z,6.03
2023-04-21T12:56:31.880Z,5.40
2023-04-21T12:58:59.794Z,5.35
2023-04-21T13:01:29.506Z,5.07
2023-04-21T13:03:57.732Z,5.60
2023-04-21T13:06:26.248Z,5.75
2023-04-21T13:08:54.096Z,5.45
2023-04-21T13:11:21.964Z,5.00
2023-04-21T13:13:49.789Z,5.55
2023-04-21T13:16:17.984Z,5.18
2023-04-21T13:18:47.494Z,5.72
2023-04-21T13:21:15.585Z,5.38
2023-04-21T13:23:43.482Z,4.90
2023-04-21T13:26:11.506Z,5.20
2023-04-21T13:28:39.481Z,5.35
2023-04-21T13:31:07.885Z,4.93
2023-04-21T13:33:36.001Z,4.65
2023-04-21T13:36:05.747Z,5.28
2023-04-21T13:38:34.027Z,4.60
2023-04-21T13:41:02.209Z,5.30
2023-04-21T13:43:30.115Z,5.07
2023-04-21T13:45:58.719Z,4.78
2023-04-21T13:48:26.729Z,5.10
2023-04-21T13:50:54.624Z,4.70
2023-04-21T13:53:23.988Z,5.05
2023-04-21T13:55:52.905Z,4.80
2023-04-21T13:58:20.908Z,5.20
2023-04-21T14:00:48.790Z,4.88
2023-04-21T14:03:16.856Z,4.68
2023-04-21T14:05:44.991Z,4.95
2023-04-21T14:08:13.032Z,5.13
2023-04-21T14:10:42.285Z,5.00
2023-04-21T14:13:17.434Z,5.28
2023-04-21T14:15:55.235Z,5.35
2023-04-21T14:18:23.248Z,4.53
2023-04-21T14:20:51.211Z,4.82
2023-04-21T14:23:19.101Z,4.80
2023-04-21T14:25:48.348Z,4.78
2023-04-21T14:28:16.172Z,5.22
2023-04-21T14:30:44.180Z,4.57
2023-04-21T14:33:12.084Z,4.25
2023-04-21T14:35:40.055Z,5.07
2023-04-21T14:38:08.418Z,5.22
2023-04-21T14:40:36.375Z,4.43
2023-04-21T14:43:05.940Z,4.65
2023-04-21T14:45:34.127Z,4.88
2023-04-21T14:48:02.400Z,5.22
2023-04-21T14:50:30.759Z,4.82
2023-04-21T14:52:58.688Z,5.20
2023-04-21T14:55:26.672Z,5.25
2023-04-21T14:57:54.504Z,5.30
2023-04-21T15:00:24.215Z,4.78
2023-04-21T15:02:52.211Z,5.32
2023-04-21T15:05:20.245Z,4.57
2023-04-21T15:07:48.200Z,4.90
2023-04-21T15:10:16.078Z,4.55
2023-04-21T15:12:44.902Z,4.78
2023-04-21T15:15:13.126Z,4.53
2023-04-21T15:17:42.330Z,4.40
2023-04-21T15:20:11.208Z,4.70
2023-04-21T15:22:39.202Z,4.82
2023-04-21T15:25:07.688Z,4.82
2023-04-21T15:27:36.683Z,4.65
2023-04-21T15:30:05.118Z,4.65
2023-04-21T15:32:32.996Z,4.57
2023-04-21T15:35:02.339Z,4.78
2023-04-21T15:37:30.251Z,4.05
2023-04-21T15:39:58.166Z,4.43
2023-04-21T15:42:26.231Z,5.65
2023-04-21T15:44:54.574Z,4.32
2023-04-21T15:47:23.032Z,4.85
2023-04-21T15:49:50.969Z,4.88
2023-04-21T15:52:20.492Z,4.68
2023-04-21T15:54:48.462Z,4.30
2023-04-21T15:57:16.510Z,4.53
2023-04-21T15:59:44.375Z,4.78
2023-04-21T16:02:12.751Z,4.55
2023-04-21T16:04:41.098Z,4.90
2023-04-21T16:07:09.729Z,4.65
2023-04-21T16:09:38.971Z,4.57
2023-04-21T16:12:10.068Z,4.05
2023-04-21T16:14:53.544Z,4.05
2023-04-21T16:17:26.629Z,4.03
2023-04-21T16:19:55.006Z,4.20
2023-04-21T16:22:22.937Z,4.68
2023-04-21T16:24:53.128Z,4.93
2023-04-21T16:27:21.291Z,4.85
2023-04-21T16:29:50.224Z,5.10
2023-04-21T16:32:18.148Z,4.53
2023-04-21T16:34:46.194Z,4.50
2023-04-21T16:37:14.132Z,4.22
2023-04-21T16:39:42.021Z,4.20
2023-04-21T16:42:11.200Z,4.70
2023-04-21T16:44:39.484Z,4.20
2023-04-21T16:47:08.083Z,4.55
2023-04-21T16:49:35.973Z,4.20
2023-04-21T16:52:03.834Z,7.00
2023-04-21T16:54:31.691Z,4.68
2023-04-21T16:56:59.567Z,5.10
2023-04-21T16:59:30.213Z,4.00
2023-04-21T17:01:58.887Z,4.28
2023-04-21T17:04:26.817Z,4.03
2023-04-21T17:06:54.967Z,4.72
2023-04-21T17:09:22.796Z,4.38
2023-04-21T17:11:50.661Z,4.35
2023-04-21T17:14:18.488Z,4.07
2023-04-21T17:16:47.800Z,4.45
2023-04-21T17:19:15.717Z,3.83
2023-04-21T17:21:43.739Z,4.20
2023-04-21T17:24:11.696Z,4.28
2023-04-21T17:26:39.546Z,4.50
2023-04-21T17:29:08.190Z,4.55
2023-04-21T17:31:36.441Z,4.03
2023-04-21T17:34:06.136Z,4.35
2023-04-21T17:36:34.106Z,4.18
2023-04-21T17:39:01.924Z,4.28
2023-04-21T17:41:29.872Z,4.05
2023-04-21T17:43:57.728Z,5.03
2023-04-21T17:46:26.434Z,4.32
2023-04-21T17:48:54.860Z,4.47
2023-04-21T17:51:24.678Z,4.03
2023-04-21T17:53:53.171Z,4.43
2023-04-21T17:56:21.272Z,4.38
2023-04-21T17:58:49.091Z,4.35
2023-04-21T18:01:16.961Z,3.75
2023-04-21T18:03:45.077Z,4.20
2023-04-21T18:06:15.958Z,4.55
2023-04-21T18:08:45.331Z,4.60
2023-04-21T18:11:13.338Z,4.25
2023-04-21T18:13:41.369Z,4.50
2023-04-21T18:16:09.282Z,4.20
2023-04-21T18:18:37.580Z,4.78
2023-04-21T18:21:05.951Z,5.07
2023-04-21T18:23:33.799Z,5.15
2023-04-21T18:26:03.096Z,4.00
2023-04-21T18:28:31.929Z,4.00
2023-04-21T18:31:00.689Z,4.50
2023-04-21T18:33:28.703Z,3.75
2023-04-21T18:35:56.562Z,4.35
2023-04-21T18:38:24.483Z,3.78
2023-04-21T18:40:52.455Z,4.55
2023-04-21T18:43:22.292Z,4.38
2023-04-21T18:45:50.198Z,3.78
2023-04-21T18:48:18.041Z,4.60
2023-04-21T18:50:46.830Z,4.60
2023-04-21T18:53:14.789Z,4.10
2023-04-21T18:55:42.651Z,4.13
2023-04-21T18:58:10.836Z,3.90
2023-04-21T19:00:40.679Z,4.00
2023-04-21T19:03:09.704Z,3.70
2023-04-21T19:05:40.376Z,3.97
2023-04-21T19:08:10.136Z,4.30
2023-04-21T19:10:38.717Z,3.70
2023-04-21T19:13:06.700Z,3.47
2023-04-21T19:15:35.079Z,3.63
2023-04-21T19:18:04.327Z,4.03
2023-04-21T19:20:32.868Z,3.60
2023-04-21T19:23:00.747Z,5.25
2023-04-21T19:25:28.704Z,3.97
2023-04-21T19:27:56.564Z,3.45
2023-04-21T19:30:24.596Z,3.97
2023-04-21T19:32:52.448Z,4.32
2023-04-21T19:35:22.144Z,3.63
2023-04-21T19:37:50.043Z,3.88
2023-04-21T19:40:17.975Z,4.65
2023-04-21T19:42:45.998Z,4.28
2023-04-21T19:45:14.139Z,4.25
2023-04-21T19:47:42.015Z,6.30
2023-04-21T19:50:11.189Z,4.30
2023-04-21T19:52:40.454Z,4.18
2023-04-21T19:55:08.969Z,4.50
2023-04-21T19:57:36.909Z,3.92
2023-04-21T20:00:09.070Z,4.75
2023-04-21T20:02:40.335Z,4.80
2023-04-21T20:05:09.494Z,4.30
2023-04-21T20:07:37.663Z,4.03
2023-04-21T20:10:08.008Z,5.00
2023-04-21T20:12:36.221Z,4.60
2023-04-21T20:15:05.640Z,4.85
2023-04-21T20:17:33.559Z,4.40
2023-04-21T20:20:01.430Z,4.35
2023-04-21T20:22:29.300Z,5.13
2023-04-21T20:24:58.031Z,5.03
2023-04-21T20:27:27.776Z,4.95
2023-04-21T20:29:56.106Z,5.28
2023-04-21T20:32:23.968Z,4.97
2023-04-21T20:34:53.368Z,4.82
2023-04-21T20:37:23.023Z,4.97
2023-04-21T20:39:51.152Z,5.10
2023-04-21T20:42:19.287Z,5.22
2023-04-21T20:44:48.453Z,5.22
2023-04-21T20:47:17.515Z,5.38
2023-04-21T20:49:47.291Z,5.55
2023-04-21T20:52:15.294Z,5.18
2023-04-21T20:54:43.164Z,5.05
2023-04-21T20:57:12.059Z,4.72
2023-04-21T20:59:40.199Z,5.40
2023-04-21T21:02:09.899Z,4.35
2023-04-21T21:04:37.984Z,4.82
2023-04-21T21:07:06.426Z,5.22
2023-04-21T21:09:34.423Z,4.93
2023-04-21T21:12:02.374Z,5.40
2023-04-21T21:14:30.354Z,5.15
2023-04-21T21:16:58.468Z,5.35
2023-04-21T21:19:27.899Z,5.07
2023-04-21T21:21:55.751Z,5.35
2023-04-21T21:24:24.899Z,5.10
2023-04-21T21:26:52.761Z,5.00
2023-04-21T21:29:20.625Z,5.53
2023-04-21T21:31:48.533Z,4.68
2023-04-21T21:34:16.424Z,4.93
2023-04-21T21:36:45.637Z,4.40
2023-04-21T21:39:13.537Z,5.20
2023-04-21T21:41:41.380Z,4.80
2023-04-21T21:44:10.424Z,4.70
2023-04-21T21:46:38.361Z,4.47
2023-04-21T21:49:06.280Z,5.68
2023-04-21T21:51:34.156Z,5.20
2023-04-21T21:54:03.362Z,5.13
2023-04-21T21:56:31.264Z,4.80
2023-04-21T21:58:59.528Z,4.55
2023-04-21T22:01:27.459Z,5.05
2023-04-21T22:03:55.464Z,4.72
2023-04-21T22:06:24.449Z,4.35
2023-04-21T22:08:52.715Z,4.82
2023-04-21T22:11:22.055Z,4.93
2023-04-21T22:13:49.891Z,5.30
2023-04-21T22:16:18.605Z,4.85
2023-04-21T22:18:48.445Z,4.55
2023-04-21T22:21:16.396Z,4.70
2023-04-21T22:23:44.280Z,5.97
2023-04-21T22:26:12.286Z,5.22
2023-04-21T22:28:43.525Z,4.47
2023-04-21T22:31:11.583Z,4.47
2023-04-21T22:33:39.502Z,4.50
2023-04-21T22:36:09.797Z,4.70
2023-04-21T22:38:38.350Z,4.68
2023-04-21T22:41:06.497Z,4.72
2023-04-21T22:43:34.367Z,4.93
2023-04-21T22:46:03.643Z,5.22
2023-04-21T22:48:32.781Z,4.68
2023-04-21T22:51:01.473Z,4.47
2023-04-21T22:53:29.431Z,5.18
2023-04-21T22:55:57.309Z,4.80
2023-04-21T22:58:26.075Z,5.28
2023-04-21T23:00:54.064Z,4.38
2023-04-21T23:03:23.765Z,4.82
2023-04-21T23:05:51.869Z,5.03
2023-04-21T23:08:19.766Z,4.90
2023-04-21T23:10:47.653Z,6.07
2023-04-21T23:13:15.560Z,4.80
2023-04-21T23:15:43.412Z,4.95
2023-04-21T23:18:11.328Z,4.72
2023-04-21T23:20:40.767Z,5.47
2023-04-21T23:23:08.648Z,4.75
2023-04-21T23:25:36.563Z,4.90
2023-04-21T23:28:04.440Z,5.45
2023-04-21T23:30:32.354Z,5.13
2023-04-21T23:33:00.870Z,5.05
2023-04-21T23:35:28.938Z,4.97
2023-04-21T23:37:58.398Z,5.22
2023-04-21T23:40:26.350Z,4.95
2023-04-21T23:42:54.213Z,4.80
2023-04-21T23:45:22.231Z,5.07
2023-04-21T23:47:50.078Z,4.75
2023-04-21T23:50:18.054Z,5.30
2023-04-21T23:52:46.077Z,5.00
2023-04-21T23:55:16.181Z,5.43
2023-04-21T23:57:46.774Z,5.13
